sensor_id;sensor_type;location;lat;lon;timestamp;P1;durP1;ratioP1;P2;durP2;ratioP2
49412;SDS011;35493;50.276;9.372;2023-03-21T00:00:00;5.28;;;2.40;;
49412;SDS011;35493;50.276;9.372;2023-03-21T00:02:34;6.97;;;2.58;;
49412;SDS011;35493;50.276;9.372;2023-03-21T00:05:07;5.13;;;2.40;;
49412;SDS011;35493;50.276;9.372;2023-03-21T00:07:41;7.57;;;2.60;;
49412;SDS011;35493;50.276;9.372;2023-03-21T00:10:14;4.30;;;2.30;;
49412;SDS011;35493;50.276;9.372;2023-03-21T00:12:41;3.90;;;2.05;;
49412;SDS011;35493;50.276;9.372;2023-03-21T00:15:15;5.97;;;2.17;;
49412;SDS011;35493;50.276;9.372;2023-03-21T00:17:49;5.78;;;2.08;;
49412;SDS011;35493;50.276;9.372;2023-03-21T00:20:24;3.97;;;2.08;;
49412;SDS011;35493;50.276;9.372;2023-03-21T00:22:57;3.72;;;2.03;;
49412;SDS011;35493;50.276;9.372;2023-03-21T00:25:30;5.15;;;1.92;;
49412;SDS011;35493;50.276;9.372;2023-03-21T00:28:04;3.95;;;1.88;;
49412;SDS011;35493;50.276;9.372;2023-03-21T00:30:40;4.25;;;2.15;;
49412;SDS011;35493;50.276;9.372;2023-03-21T00:33:13;5.53;;;2.80;;
49412;SDS011;35493;50.276;9.372;2023-03-21T00:35:48;4.70;;;2.15;;
49412;SDS011;35493;50.276;9.372;2023-03-21T00:38:22;5.80;;;2.35;;
49412;SDS011;35493;50.276;9.372;2023-03-21T00:40:56;4.43;;;2.05;;
49412;SDS011;35493;50.276;9.372;2023-03-21T00:43:24;5.45;;;2.10;;
49412;SDS011;35493;50.276;9.372;2023-03-21T00:46:02;6.15;;;2.60;;
49412;SDS011;35493;50.276;9.372;2023-03-21T00:48:35;4.68;;;2.38;;
49412;SDS011;35493;50.276;9.372;2023-03-21T00:51:09;4.38;;;2.15;;
49412;SDS011;35493;50.276;9.372;2023-03-21T00:53:53;4.95;;;2.53;;
49412;SDS011;35493;50.276;9.372;2023-03-21T00:56:26;5.32;;;2.35;;
49412;SDS011;35493;50.276;9.372;2023-03-21T00:58:59;4.00;;;2.10;;
49412;SDS011;35493;50.276;9.372;2023-03-21T01:01:34;4.78;;;2.65;;
49412;SDS011;35493;50.276;9.372;2023-03-21T01:04:07;5.93;;;2.22;;
49412;SDS011;35493;50.276;9.372;2023-03-21T01:06:46;3.88;;;1.90;;
49412;SDS011;35493;50.276;9.372;2023-03-21T01:09:20;5.78;;;2.05;;
49412;SDS011;35493;50.276;9.372;2023-03-21T01:11:56;8.63;;;2.30;;
49412;SDS011;35493;50.276;9.372;2023-03-21T01:14:29;4.03;;;1.80;;
49412;SDS011;35493;50.276;9.372;2023-03-21T01:17:04;4.00;;;1.88;;
49412;SDS011;35493;50.276;9.372;2023-03-21T01:19:37;3.95;;;1.80;;
49412;SDS011;35493;50.276;9.372;2023-03-21T01:22:18;4.40;;;1.67;;
49412;SDS011;35493;50.276;9.372;2023-03-21T01:24:51;3.67;;;1.60;;
49412;SDS011;35493;50.276;9.372;2023-03-21T01:27:18;5.68;;;1.70;;
49412;SDS011;35493;50.276;9.372;2023-03-21T01:29:52;3.13;;;1.50;;
49412;SDS011;35493;50.276;9.372;2023-03-21T01:32:27;3.92;;;1.42;;
49412;SDS011;35493;50.276;9.372;2023-03-21T01:35:00;4.03;;;1.85;;
49412;SDS011;35493;50.276;9.372;2023-03-21T01:37:34;3.05;;;1.48;;
49412;SDS011;35493;50.276;9.372;2023-03-21T01:40:10;4.38;;;1.45;;
49412;SDS011;35493;50.276;9.372;2023-03-21T01:42:51;5.95;;;1.75;;
49412;SDS011;35493;50.276;9.372;2023-03-21T01:49:13;4.90;;;2.25;;
49412;SDS011;35493;50.276;9.372;2023-03-21T01:51:52;7.13;;;2.78;;
49412;SDS011;35493;50.276;9.372;2023-03-21T01:54:29;6.85;;;3.03;;
49412;SDS011;35493;50.276;9.372;2023-03-21T01:57:15;6.10;;;2.70;;
49412;SDS011;35493;50.276;9.372;2023-03-21T01:59:53;6.40;;;2.85;;
49412;SDS011;35493;50.276;9.372;2023-03-21T02:02:44;5.28;;;2.88;;
49412;SDS011;35493;50.276;9.372;2023-03-21T02:05:53;6.50;;;3.00;;
49412;SDS011;35493;50.276;9.372;2023-03-21T02:08:36;5.68;;;2.95;;
49412;SDS011;35493;50.276;9.372;2023-03-21T02:11:13;5.47;;;2.85;;
49412;SDS011;35493;50.276;9.372;2023-03-21T02:13:46;5.88;;;2.83;;
49412;SDS011;35493;50.276;9.372;2023-03-21T02:16:23;6.40;;;3.30;;
49412;SDS011;35493;50.276;9.372;2023-03-21T02:19:06;6.50;;;2.95;;
49412;SDS011;35493;50.276;9.372;2023-03-21T02:22:15;6.72;;;2.72;;
49412;SDS011;35493;50.276;9.372;2023-03-21T02:25:20;7.57;;;3.17;;
49412;SDS011;35493;50.276;9.372;2023-03-21T02:28:20;5.32;;;3.15;;
49412;SDS011;35493;50.276;9.372;2023-03-21T02:31:04;6.55;;;3.15;;
49412;SDS011;35493;50.276;9.372;2023-03-21T02:33:55;6.00;;;3.05;;
49412;SDS011;35493;50.276;9.372;2023-03-21T02:36:56;7.45;;;3.60;;
49412;SDS011;35493;50.276;9.372;2023-03-21T02:39:39;7.22;;;3.15;;
49412;SDS011;35493;50.276;9.372;2023-03-21T02:42:21;6.55;;;3.00;;
49412;SDS011;35493;50.276;9.372;2023-03-21T02:45:02;5.68;;;2.80;;
49412;SDS011;35493;50.276;9.372;2023-03-21T02:47:47;7.13;;;3.08;;
49412;SDS011;35493;50.276;9.372;2023-03-21T02:50:25;5.43;;;2.58;;
49412;SDS011;35493;50.276;9.372;2023-03-21T02:53:12;6.70;;;3.15;;
49412;SDS011;35493;50.276;9.372;2023-03-21T02:55:51;6.80;;;3.13;;
49412;SDS011;35493;50.276;9.372;2023-03-21T02:58:26;8.07;;;3.03;;
49412;SDS011;35493;50.276;9.372;2023-03-21T03:01:03;6.03;;;3.30;;
49412;SDS011;35493;50.276;9.372;2023-03-21T03:06:19;6.72;;;3.28;;
49412;SDS011;35493;50.276;9.372;2023-03-21T03:09:03;5.18;;;2.95;;
49412;SDS011;35493;50.276;9.372;2023-03-21T03:11:48;6.50;;;3.33;;
49412;SDS011;35493;50.276;9.372;2023-03-21T03:14:31;5.75;;;3.20;;
49412;SDS011;35493;50.276;9.372;2023-03-21T03:17:16;6.43;;;3.17;;
49412;SDS011;35493;50.276;9.372;2023-03-21T03:20:00;8.27;;;3.50;;
49412;SDS011;35493;50.276;9.372;2023-03-21T03:22:51;8.70;;;3.03;;
49412;SDS011;35493;50.276;9.372;2023-03-21T03:25:30;6.20;;;2.97;;
49412;SDS011;35493;50.276;9.372;2023-03-21T03:28:11;7.50;;;3.25;;
49412;SDS011;35493;50.276;9.372;2023-03-21T03:30:47;5.70;;;2.70;;
49412;SDS011;35493;50.276;9.372;2023-03-21T03:33:24;5.45;;;3.05;;
49412;SDS011;35493;50.276;9.372;2023-03-21T03:36:00;6.85;;;3.47;;
49412;SDS011;35493;50.276;9.372;2023-03-21T03:38:34;5.47;;;2.92;;
49412;SDS011;35493;50.276;9.372;2023-03-21T03:41:13;8.70;;;3.55;;
49412;SDS011;35493;50.276;9.372;2023-03-21T03:43:55;6.35;;;3.20;;
49412;SDS011;35493;50.276;9.372;2023-03-21T03:49:12;6.25;;;3.05;;
49412;SDS011;35493;50.276;9.372;2023-03-21T03:51:49;7.15;;;3.20;;
49412;SDS011;35493;50.276;9.372;2023-03-21T03:54:35;9.88;;;3.42;;
49412;SDS011;35493;50.276;9.372;2023-03-21T03:57:20;7.60;;;3.05;;
49412;SDS011;35493;50.276;9.372;2023-03-21T03:59:56;6.63;;;3.20;;
49412;SDS011;35493;50.276;9.372;2023-03-21T04:02:57;5.05;;;3.05;;
49412;SDS011;35493;50.276;9.372;2023-03-21T04:05:30;5.55;;;2.72;;
49412;SDS011;35493;50.276;9.372;2023-03-21T04:08:04;5.60;;;2.97;;
49412;SDS011;35493;50.276;9.372;2023-03-21T04:10:41;8.20;;;3.40;;
49412;SDS011;35493;50.276;9.372;2023-03-21T04:13:17;6.65;;;3.20;;
49412;SDS011;35493;50.276;9.372;2023-03-21T04:16:03;6.00;;;2.90;;
49412;SDS011;35493;50.276;9.372;2023-03-21T04:18:37;7.75;;;2.90;;
49412;SDS011;35493;50.276;9.372;2023-03-21T04:21:12;5.13;;;2.45;;
49412;SDS011;35493;50.276;9.372;2023-03-21T04:23:45;6.03;;;2.72;;
49412;SDS011;35493;50.276;9.372;2023-03-21T04:26:19;7.43;;;2.88;;
49412;SDS011;35493;50.276;9.372;2023-03-21T04:29:08;6.65;;;3.10;;
49412;SDS011;35493;50.276;9.372;2023-03-21T04:32:04;5.75;;;2.90;;
49412;SDS011;35493;50.276;9.372;2023-03-21T04:34:54;7.57;;;3.27;;
49412;SDS011;35493;50.276;9.372;2023-03-21T04:37:28;6.10;;;2.97;;
49412;SDS011;35493;50.276;9.372;2023-03-21T04:40:07;6.72;;;3.38;;
49412;SDS011;35493;50.276;9.372;2023-03-21T04:42:41;5.47;;;2.90;;
49412;SDS011;35493;50.276;9.372;2023-03-21T04:45:17;7.13;;;2.95;;
49412;SDS011;35493;50.276;9.372;2023-03-21T04:47:50;7.20;;;3.17;;
49412;SDS011;35493;50.276;9.372;2023-03-21T04:50:23;5.93;;;2.92;;
49412;SDS011;35493;50.276;9.372;2023-03-21T04:53:04;9.68;;;3.67;;
49412;SDS011;35493;50.276;9.372;2023-03-21T04:55:38;6.23;;;3.07;;
49412;SDS011;35493;50.276;9.372;2023-03-21T04:58:11;5.93;;;3.20;;
49412;SDS011;35493;50.276;9.372;2023-03-21T05:00:47;5.82;;;3.10;;
49412;SDS011;35493;50.276;9.372;2023-03-21T05:03:24;8.15;;;3.25;;
49412;SDS011;35493;50.276;9.372;2023-03-21T05:06:00;6.97;;;3.40;;
49412;SDS011;35493;50.276;9.372;2023-03-21T05:08:33;6.47;;;3.08;;
49412;SDS011;35493;50.276;9.372;2023-03-21T05:11:10;8.35;;;3.70;;
49412;SDS011;35493;50.276;9.372;2023-03-21T05:13:43;5.95;;;3.15;;
49412;SDS011;35493;50.276;9.372;2023-03-21T05:16:12;7.68;;;3.40;;
49412;SDS011;35493;50.276;9.372;2023-03-21T05:18:45;6.90;;;2.92;;
49412;SDS011;35493;50.276;9.372;2023-03-21T05:21:21;6.53;;;3.00;;
49412;SDS011;35493;50.276;9.372;2023-03-21T05:23:56;6.45;;;3.22;;
49412;SDS011;35493;50.276;9.372;2023-03-21T05:26:33;8.25;;;3.28;;
49412;SDS011;35493;50.276;9.372;2023-03-21T05:29:13;8.70;;;3.42;;
49412;SDS011;35493;50.276;9.372;2023-03-21T05:31:56;8.02;;;3.55;;
49412;SDS011;35493;50.276;9.372;2023-03-21T05:34:29;6.05;;;3.30;;
49412;SDS011;35493;50.276;9.372;2023-03-21T05:37:03;5.43;;;2.95;;
49412;SDS011;35493;50.276;9.372;2023-03-21T05:39:48;7.53;;;3.53;;
49412;SDS011;35493;50.276;9.372;2023-03-21T05:42:26;7.93;;;3.60;;
49412;SDS011;35493;50.276;9.372;2023-03-21T05:45:08;8.43;;;3.65;;
49412;SDS011;35493;50.276;9.372;2023-03-21T05:47:44;6.15;;;3.30;;
49412;SDS011;35493;50.276;9.372;2023-03-21T05:50:21;7.32;;;3.25;;
49412;SDS011;35493;50.276;9.372;2023-03-21T05:53:10;6.90;;;4.00;;
49412;SDS011;35493;50.276;9.372;2023-03-21T05:55:43;8.02;;;3.67;;
49412;SDS011;35493;50.276;9.372;2023-03-21T05:58:36;6.63;;;3.08;;
49412;SDS011;35493;50.276;9.372;2023-03-21T06:01:09;7.68;;;3.60;;
49412;SDS011;35493;50.276;9.372;2023-03-21T06:03:53;5.65;;;3.05;;
49412;SDS011;35493;50.276;9.372;2023-03-21T06:06:28;8.05;;;3.50;;
49412;SDS011;35493;50.276;9.372;2023-03-21T06:09:02;7.57;;;3.67;;
49412;SDS011;35493;50.276;9.372;2023-03-21T06:11:39;8.52;;;3.25;;
49412;SDS011;35493;50.276;9.372;2023-03-21T06:14:24;6.57;;;3.03;;
49412;SDS011;35493;50.276;9.372;2023-03-21T06:17:18;7.97;;;3.65;;
49412;SDS011;35493;50.276;9.372;2023-03-21T06:19:58;6.82;;;4.00;;
49412;SDS011;35493;50.276;9.372;2023-03-21T06:22:38;7.35;;;3.63;;
49412;SDS011;35493;50.276;9.372;2023-03-21T06:25:11;5.93;;;3.35;;
49412;SDS011;35493;50.276;9.372;2023-03-21T06:27:52;7.38;;;3.55;;
49412;SDS011;35493;50.276;9.372;2023-03-21T06:33:08;6.20;;;3.15;;
49412;SDS011;35493;50.276;9.372;2023-03-21T06:35:43;6.25;;;3.38;;
49412;SDS011;35493;50.276;9.372;2023-03-21T06:38:23;5.95;;;3.42;;
49412;SDS011;35493;50.276;9.372;2023-03-21T06:40:57;7.32;;;3.65;;
49412;SDS011;35493;50.276;9.372;2023-03-21T06:43:37;6.18;;;3.63;;
49412;SDS011;35493;50.276;9.372;2023-03-21T06:46:10;7.78;;;3.35;;
49412;SDS011;35493;50.276;9.372;2023-03-21T06:48:45;9.18;;;3.97;;
49412;SDS011;35493;50.276;9.372;2023-03-21T06:51:20;8.88;;;4.25;;
49412;SDS011;35493;50.276;9.372;2023-03-21T06:54:03;7.65;;;3.83;;
49412;SDS011;35493;50.276;9.372;2023-03-21T06:56:44;7.28;;;3.88;;
49412;SDS011;35493;50.276;9.372;2023-03-21T06:59:22;8.30;;;3.90;;
49412;SDS011;35493;50.276;9.372;2023-03-21T07:02:05;8.75;;;4.15;;
49412;SDS011;35493;50.276;9.372;2023-03-21T07:04:45;6.30;;;3.67;;
49412;SDS011;35493;50.276;9.372;2023-03-21T07:07:24;8.23;;;4.28;;
49412;SDS011;35493;50.276;9.372;2023-03-21T07:10:00;8.07;;;3.90;;
49412;SDS011;35493;50.276;9.372;2023-03-21T07:12:50;8.60;;;3.92;;
49412;SDS011;35493;50.276;9.372;2023-03-21T07:15:40;7.70;;;4.07;;
49412;SDS011;35493;50.276;9.372;2023-03-21T07:18:14;6.63;;;3.50;;
49412;SDS011;35493;50.276;9.372;2023-03-21T07:20:48;9.70;;;3.70;;
49412;SDS011;35493;50.276;9.372;2023-03-21T07:23:24;10.05;;;3.67;;
49412;SDS011;35493;50.276;9.372;2023-03-21T07:25:59;9.45;;;3.83;;
49412;SDS011;35493;50.276;9.372;2023-03-21T07:28:32;7.03;;;3.38;;
49412;SDS011;35493;50.276;9.372;2023-03-21T07:31:06;6.07;;;3.30;;
49412;SDS011;35493;50.276;9.372;2023-03-21T07:33:39;6.03;;;3.22;;
49412;SDS011;35493;50.276;9.372;2023-03-21T07:36:13;7.45;;;3.08;;
49412;SDS011;35493;50.276;9.372;2023-03-21T07:38:49;6.55;;;3.10;;
49412;SDS011;35493;50.276;9.372;2023-03-21T07:41:22;6.70;;;3.28;;
49412;SDS011;35493;50.276;9.372;2023-03-21T07:44:08;7.80;;;3.55;;
49412;SDS011;35493;50.276;9.372;2023-03-21T07:46:41;7.30;;;3.03;;
49412;SDS011;35493;50.276;9.372;2023-03-21T07:49:14;6.05;;;2.80;;
49412;SDS011;35493;50.276;9.372;2023-03-21T07:51:47;6.60;;;3.00;;
49412;SDS011;35493;50.276;9.372;2023-03-21T07:54:22;6.50;;;2.80;;
49412;SDS011;35493;50.276;9.372;2023-03-21T07:57:02;7.93;;;2.67;;
49412;SDS011;35493;50.276;9.372;2023-03-21T07:59:35;5.85;;;2.72;;
49412;SDS011;35493;50.276;9.372;2023-03-21T08:02:09;6.30;;;2.33;;
49412;SDS011;35493;50.276;9.372;2023-03-21T08:04:44;7.60;;;2.53;;
49412;SDS011;35493;50.276;9.372;2023-03-21T08:07:18;6.10;;;2.78;;
49412;SDS011;35493;50.276;9.372;2023-03-21T08:09:53;6.43;;;2.55;;
49412;SDS011;35493;50.276;9.372;2023-03-21T08:12:26;7.20;;;2.67;;
49412;SDS011;35493;50.276;9.372;2023-03-21T08:15:00;7.55;;;2.83;;
49412;SDS011;35493;50.276;9.372;2023-03-21T08:17:34;6.57;;;2.90;;
49412;SDS011;35493;50.276;9.372;2023-03-21T08:20:10;8.88;;;2.83;;
49412;SDS011;35493;50.276;9.372;2023-03-21T08:22:47;8.40;;;3.55;;
49412;SDS011;35493;50.276;9.372;2023-03-21T08:25:22;8.90;;;2.67;;
49412;SDS011;35493;50.276;9.372;2023-03-21T08:27:56;12.23;;;3.70;;
49412;SDS011;35493;50.276;9.372;2023-03-21T08:30:29;6.28;;;2.90;;
49412;SDS011;35493;50.276;9.372;2023-03-21T08:33:03;7.65;;;3.00;;
49412;SDS011;35493;50.276;9.372;2023-03-21T08:35:37;8.80;;;3.00;;
49412;SDS011;35493;50.276;9.372;2023-03-21T08:38:11;7.93;;;2.97;;
49412;SDS011;35493;50.276;9.372;2023-03-21T08:40:46;9.07;;;3.10;;
49412;SDS011;35493;50.276;9.372;2023-03-21T08:43:19;7.05;;;2.70;;
49412;SDS011;35493;50.276;9.372;2023-03-21T08:45:46;6.07;;;2.88;;
49412;SDS011;35493;50.276;9.372;2023-03-21T08:48:21;7.28;;;3.30;;
49412;SDS011;35493;50.276;9.372;2023-03-21T08:50:55;6.60;;;2.97;;
49412;SDS011;35493;50.276;9.372;2023-03-21T08:53:35;6.88;;;2.88;;
49412;SDS011;35493;50.276;9.372;2023-03-21T08:56:11;6.88;;;3.20;;
49412;SDS011;35493;50.276;9.372;2023-03-21T08:58:51;7.85;;;3.40;;
49412;SDS011;35493;50.276;9.372;2023-03-21T09:01:25;9.30;;;3.00;;
49412;SDS011;35493;50.276;9.372;2023-03-21T09:03:59;10.48;;;3.10;;
49412;SDS011;35493;50.276;9.372;2023-03-21T09:06:25;7.30;;;2.95;;
49412;SDS011;35493;50.276;9.372;2023-03-21T09:09:00;9.40;;;3.08;;
49412;SDS011;35493;50.276;9.372;2023-03-21T09:11:38;7.00;;;3.13;;
49412;SDS011;35493;50.276;9.372;2023-03-21T09:14:11;7.65;;;2.63;;
49412;SDS011;35493;50.276;9.372;2023-03-21T09:16:45;7.88;;;3.10;;
49412;SDS011;35493;50.276;9.372;2023-03-21T09:19:18;8.90;;;3.40;;
49412;SDS011;35493;50.276;9.372;2023-03-21T09:21:52;10.00;;;3.67;;
49412;SDS011;35493;50.276;9.372;2023-03-21T09:24:25;9.73;;;4.18;;
49412;SDS011;35493;50.276;9.372;2023-03-21T09:26:54;10.57;;;3.65;;
49412;SDS011;35493;50.276;9.372;2023-03-21T09:29:27;6.88;;;3.67;;
49412;SDS011;35493;50.276;9.372;2023-03-21T09:32:04;9.10;;;3.85;;
49412;SDS011;35493;50.276;9.372;2023-03-21T09:34:38;7.10;;;3.55;;
49412;SDS011;35493;50.276;9.372;2023-03-21T09:37:12;10.05;;;4.75;;
49412;SDS011;35493;50.276;9.372;2023-03-21T09:39:45;9.38;;;4.55;;
49412;SDS011;35493;50.276;9.372;2023-03-21T09:42:26;9.18;;;3.95;;
49412;SDS011;35493;50.276;9.372;2023-03-21T09:45:07;13.45;;;6.13;;
49412;SDS011;35493;50.276;9.372;2023-03-21T09:47:48;9.30;;;4.45;;
49412;SDS011;35493;50.276;9.372;2023-03-21T09:50:25;8.73;;;4.00;;
49412;SDS011;35493;50.276;9.372;2023-03-21T09:53:04;7.50;;;3.50;;
49412;SDS011;35493;50.276;9.372;2023-03-21T09:55:49;8.02;;;3.90;;
49412;SDS011;35493;50.276;9.372;2023-03-21T09:58:26;8.38;;;3.45;;
49412;SDS011;35493;50.276;9.372;2023-03-21T10:01:02;7.60;;;2.97;;
49412;SDS011;35493;50.276;9.372;2023-03-21T10:03:40;7.30;;;3.33;;
49412;SDS011;35493;50.276;9.372;2023-03-21T10:06:14;7.63;;;3.33;;
49412;SDS011;35493;50.276;9.372;2023-03-21T10:08:49;8.52;;;3.10;;
49412;SDS011;35493;50.276;9.372;2023-03-21T10:11:24;7.32;;;3.40;;
49412;SDS011;35493;50.276;9.372;2023-03-21T10:14:02;7.65;;;2.92;;
49412;SDS011;35493;50.276;9.372;2023-03-21T10:16:39;8.95;;;3.53;;
49412;SDS011;35493;50.276;9.372;2023-03-21T10:19:15;7.75;;;3.10;;
49412;SDS011;35493;50.276;9.372;2023-03-21T10:21:50;9.20;;;3.05;;
49412;SDS011;35493;50.276;9.372;2023-03-21T10:24:24;6.30;;;3.15;;
49412;SDS011;35493;50.276;9.372;2023-03-21T10:27:00;10.70;;;3.67;;
49412;SDS011;35493;50.276;9.372;2023-03-21T10:29:38;6.78;;;3.38;;
49412;SDS011;35493;50.276;9.372;2023-03-21T10:32:14;8.25;;;3.10;;
49412;SDS011;35493;50.276;9.372;2023-03-21T10:34:50;9.18;;;3.63;;
49412;SDS011;35493;50.276;9.372;2023-03-21T10:37:26;6.30;;;3.25;;
49412;SDS011;35493;50.276;9.372;2023-03-21T10:39:59;7.97;;;2.80;;
49412;SDS011;35493;50.276;9.372;2023-03-21T10:42:33;7.60;;;3.40;;
49412;SDS011;35493;50.276;9.372;2023-03-21T10:45:14;8.07;;;3.25;;
49412;SDS011;35493;50.276;9.372;2023-03-21T10:47:49;8.02;;;2.90;;
49412;SDS011;35493;50.276;9.372;2023-03-21T10:50:27;8.55;;;3.45;;
49412;SDS011;35493;50.276;9.372;2023-03-21T10:53:12;11.68;;;3.30;;
49412;SDS011;35493;50.276;9.372;2023-03-21T10:56:02;10.00;;;3.33;;
49412;SDS011;35493;50.276;9.372;2023-03-21T10:58:41;6.18;;;2.88;;
49412;SDS011;35493;50.276;9.372;2023-03-21T11:01:24;6.70;;;2.70;;
49412;SDS011;35493;50.276;9.372;2023-03-21T11:04:04;7.75;;;3.20;;
49412;SDS011;35493;50.276;9.372;2023-03-21T11:06:40;7.30;;;3.05;;
49412;SDS011;35493;50.276;9.372;2023-03-21T11:09:15;11.15;;;3.50;;
49412;SDS011;35493;50.276;9.372;2023-03-21T11:11:52;7.85;;;2.92;;
49412;SDS011;35493;50.276;9.372;2023-03-21T11:14:35;7.43;;;3.30;;
49412;SDS011;35493;50.276;9.372;2023-03-21T11:17:21;7.45;;;3.00;;
49412;SDS011;35493;50.276;9.372;2023-03-21T11:19:56;8.82;;;3.25;;
49412;SDS011;35493;50.276;9.372;2023-03-21T11:22:36;8.27;;;3.20;;
49412;SDS011;35493;50.276;9.372;2023-03-21T11:25:19;6.60;;;2.95;;
49412;SDS011;35493;50.276;9.372;2023-03-21T11:27:55;8.18;;;3.17;;
49412;SDS011;35493;50.276;9.372;2023-03-21T11:30:29;7.53;;;3.55;;
49412;SDS011;35493;50.276;9.372;2023-03-21T11:33:13;8.70;;;3.60;;
49412;SDS011;35493;50.276;9.372;2023-03-21T11:36:03;10.50;;;3.40;;
49412;SDS011;35493;50.276;9.372;2023-03-21T11:38:39;9.88;;;4.03;;
49412;SDS011;35493;50.276;9.372;2023-03-21T11:41:14;9.00;;;4.03;;
49412;SDS011;35493;50.276;9.372;2023-03-21T11:43:55;10.25;;;3.70;;
49412;SDS011;35493;50.276;9.372;2023-03-21T11:46:29;8.02;;;3.85;;
49412;SDS011;35493;50.276;9.372;2023-03-21T11:49:07;7.47;;;3.53;;
49412;SDS011;35493;50.276;9.372;2023-03-21T11:51:43;9.48;;;3.53;;
49412;SDS011;35493;50.276;9.372;2023-03-21T11:54:25;7.13;;;4.00;;
49412;SDS011;35493;50.276;9.372;2023-03-21T11:57:21;8.88;;;3.67;;
49412;SDS011;35493;50.276;9.372;2023-03-21T12:00:12;8.02;;;3.72;;
49412;SDS011;35493;50.276;9.372;2023-03-21T12:03:03;6.65;;;3.47;;
49412;SDS011;35493;50.276;9.372;2023-03-21T12:05:54;7.30;;;3.28;;
49412;SDS011;35493;50.276;9.372;2023-03-21T12:08:33;7.30;;;3.28;;
49412;SDS011;35493;50.276;9.372;2023-03-21T12:11:14;7.20;;;3.42;;
49412;SDS011;35493;50.276;9.372;2023-03-21T12:13:53;11.02;;;3.25;;
49412;SDS011;35493;50.276;9.372;2023-03-21T12:16:44;7.43;;;3.55;;
49412;SDS011;35493;50.276;9.372;2023-03-21T12:19:33;7.60;;;3.40;;
49412;SDS011;35493;50.276;9.372;2023-03-21T12:22:25;7.93;;;4.13;;
49412;SDS011;35493;50.276;9.372;2023-03-21T12:25:08;11.05;;;5.40;;
49412;SDS011;35493;50.276;9.372;2023-03-21T12:27:48;11.57;;;4.93;;
49412;SDS011;35493;50.276;9.372;2023-03-21T12:30:32;10.13;;;4.13;;
49412;SDS011;35493;50.276;9.372;2023-03-21T12:33:29;9.93;;;3.88;;
49412;SDS011;35493;50.276;9.372;2023-03-21T12:36:29;8.18;;;3.50;;
49412;SDS011;35493;50.276;9.372;2023-03-21T12:39:16;8.68;;;3.40;;
49412;SDS011;35493;50.276;9.372;2023-03-21T12:42:03;9.65;;;4.10;;
49412;SDS011;35493;50.276;9.372;2023-03-21T12:44:57;8.50;;;3.28;;
49412;SDS011;35493;50.276;9.372;2023-03-21T12:47:34;9.38;;;3.20;;
49412;SDS011;35493;50.276;9.372;2023-03-21T12:50:12;9.27;;;3.70;;
49412;SDS011;35493;50.276;9.372;2023-03-21T12:52:51;8.32;;;3.45;;
49412;SDS011;35493;50.276;9.372;2023-03-21T12:55:29;6.47;;;3.03;;
49412;SDS011;35493;50.276;9.372;2023-03-21T12:58:07;11.35;;;3.70;;
49412;SDS011;35493;50.276;9.372;2023-03-21T13:00:50;6.95;;;3.20;;
49412;SDS011;35493;50.276;9.372;2023-03-21T13:03:28;9.15;;;3.60;;
49412;SDS011;35493;50.276;9.372;2023-03-21T13:06:05;6.00;;;3.13;;
49412;SDS011;35493;50.276;9.372;2023-03-21T13:08:42;5.85;;;3.10;;
49412;SDS011;35493;50.276;9.372;2023-03-21T13:11:21;6.90;;;3.33;;
49412;SDS011;35493;50.276;9.372;2023-03-21T13:13:57;8.15;;;3.20;;
49412;SDS011;35493;50.276;9.372;2023-03-21T13:16:36;8.40;;;3.55;;
49412;SDS011;35493;50.276;9.372;2023-03-21T13:19:17;7.70;;;3.45;;
49412;SDS011;35493;50.276;9.372;2023-03-21T13:21:56;7.03;;;2.83;;
49412;SDS011;35493;50.276;9.372;2023-03-21T13:24:37;6.20;;;3.05;;
49412;SDS011;35493;50.276;9.372;2023-03-21T13:27:17;10.25;;;3.80;;
49412;SDS011;35493;50.276;9.372;2023-03-21T13:29:58;6.75;;;3.30;;
49412;SDS011;35493;50.276;9.372;2023-03-21T13:32:33;8.45;;;3.20;;
49412;SDS011;35493;50.276;9.372;2023-03-21T13:35:12;10.50;;;4.30;;
49412;SDS011;35493;50.276;9.372;2023-03-21T13:37:48;6.85;;;3.20;;
49412;SDS011;35493;50.276;9.372;2023-03-21T13:40:25;7.93;;;3.30;;
49412;SDS011;35493;50.276;9.372;2023-03-21T13:43:01;9.68;;;3.38;;
49412;SDS011;35493;50.276;9.372;2023-03-21T13:45:43;8.93;;;3.83;;
49412;SDS011;35493;50.276;9.372;2023-03-21T13:48:26;8.20;;;4.05;;
49412;SDS011;35493;50.276;9.372;2023-03-21T13:51:02;7.60;;;3.90;;
49412;SDS011;35493;50.276;9.372;2023-03-21T13:53:37;10.48;;;3.65;;
49412;SDS011;35493;50.276;9.372;2023-03-21T13:56:20;8.88;;;3.88;;
49412;SDS011;35493;50.276;9.372;2023-03-21T13:58:58;8.68;;;3.45;;
49412;SDS011;35493;50.276;9.372;2023-03-21T14:01:33;9.80;;;4.03;;
49412;SDS011;35493;50.276;9.372;2023-03-21T14:04:11;7.00;;;3.67;;
49412;SDS011;35493;50.276;9.372;2023-03-21T14:06:48;9.88;;;3.97;;
49412;SDS011;35493;50.276;9.372;2023-03-21T14:09:27;7.15;;;3.60;;
49412;SDS011;35493;50.276;9.372;2023-03-21T14:12:06;7.85;;;3.47;;
49412;SDS011;35493;50.276;9.372;2023-03-21T14:14:44;9.50;;;3.55;;
49412;SDS011;35493;50.276;9.372;2023-03-21T14:17:21;8.00;;;3.45;;
49412;SDS011;35493;50.276;9.372;2023-03-21T14:19:57;6.88;;;3.03;;
49412;SDS011;35493;50.276;9.372;2023-03-21T14:22:33;9.10;;;3.47;;
49412;SDS011;35493;50.276;9.372;2023-03-21T14:25:06;7.72;;;3.30;;
49412;SDS011;35493;50.276;9.372;2023-03-21T14:27:44;8.55;;;3.50;;
49412;SDS011;35493;50.276;9.372;2023-03-21T14:30:22;10.60;;;3.67;;
49412;SDS011;35493;50.276;9.372;2023-03-21T14:32:58;10.10;;;3.50;;
49412;SDS011;35493;50.276;9.372;2023-03-21T14:35:35;11.35;;;4.20;;
49412;SDS011;35493;50.276;9.372;2023-03-21T14:38:16;8.98;;;4.00;;
49412;SDS011;35493;50.276;9.372;2023-03-21T14:40:53;9.88;;;4.20;;
49412;SDS011;35493;50.276;9.372;2023-03-21T14:43:29;8.20;;;3.78;;
49412;SDS011;35493;50.276;9.372;2023-03-21T14:46:11;8.48;;;3.20;;
49412;SDS011;35493;50.276;9.372;2023-03-21T14:48:45;7.32;;;3.47;;
49412;SDS011;35493;50.276;9.372;2023-03-21T14:51:18;9.52;;;3.08;;
49412;SDS011;35493;50.276;9.372;2023-03-21T14:53:52;7.72;;;3.53;;
49412;SDS011;35493;50.276;9.372;2023-03-21T14:56:25;5.50;;;2.80;;
49412;SDS011;35493;50.276;9.372;2023-03-21T14:58:58;8.52;;;3.10;;
49412;SDS011;35493;50.276;9.372;2023-03-21T15:01:32;7.40;;;3.67;;
49412;SDS011;35493;50.276;9.372;2023-03-21T15:04:06;7.75;;;3.10;;
49412;SDS011;35493;50.276;9.372;2023-03-21T15:06:53;9.23;;;2.90;;
49412;SDS011;35493;50.276;9.372;2023-03-21T15:09:28;5.88;;;2.78;;
49412;SDS011;35493;50.276;9.372;2023-03-21T15:12:07;6.38;;;3.13;;
49412;SDS011;35493;50.276;9.372;2023-03-21T15:14:41;9.60;;;3.25;;
49412;SDS011;35493;50.276;9.372;2023-03-21T15:17:16;8.82;;;2.83;;
49412;SDS011;35493;50.276;9.372;2023-03-21T15:19:51;7.50;;;3.10;;
49412;SDS011;35493;50.276;9.372;2023-03-21T15:22:25;7.63;;;2.95;;
49412;SDS011;35493;50.276;9.372;2023-03-21T15:25:05;8.93;;;3.03;;
49412;SDS011;35493;50.276;9.372;2023-03-21T15:27:41;9.45;;;3.65;;
49412;SDS011;35493;50.276;9.372;2023-03-21T15:30:17;7.07;;;3.15;;
49412;SDS011;35493;50.276;9.372;2023-03-21T15:32:53;7.97;;;3.17;;
49412;SDS011;35493;50.276;9.372;2023-03-21T15:35:29;7.50;;;3.10;;
49412;SDS011;35493;50.276;9.372;2023-03-21T15:38:06;9.70;;;3.58;;
49412;SDS011;35493;50.276;9.372;2023-03-21T15:40:52;8.95;;;3.70;;
49412;SDS011;35493;50.276;9.372;2023-03-21T15:43:46;7.50;;;3.92;;
49412;SDS011;35493;50.276;9.372;2023-03-21T15:46:30;6.63;;;3.28;;
49412;SDS011;35493;50.276;9.372;2023-03-21T15:49:08;8.90;;;4.07;;
49412;SDS011;35493;50.276;9.372;2023-03-21T15:51:44;9.25;;;4.50;;
49412;SDS011;35493;50.276;9.372;2023-03-21T15:54:22;11.13;;;4.40;;
49412;SDS011;35493;50.276;9.372;2023-03-21T15:57:05;11.93;;;4.13;;
49412;SDS011;35493;50.276;9.372;2023-03-21T15:59:53;9.07;;;3.38;;
49412;SDS011;35493;50.276;9.372;2023-03-21T16:02:38;8.30;;;3.72;;